KLM80Y LIML-EHAM
Flight info
| Callsign | KLM80Y |
|---|---|
| Flight time | 1h 18m |
| Altitude | 36000 |
| Route | ARLES DCT PUNSA DCT VADEM DCT GILIR DCT PENDU DCT IXILU DCT EPL DCT ROUSY DCT KOMOB DCT BUB Y28 HELEN |
| Aircraft | B739/M-SDE2E3FGHIRWXY/LB1 |
Departure
| Time | 2026-04-27 11:58 |
|---|---|
| Airport | Milano Linate Airport (LIML) |
Arrival
| Time | 2026-04-27 13:17 |
|---|---|
| Airport | Amsterdam Airport Schiphol (EHAM) |
| Time | Latitude | Longitude | Altitude | Speed | Heading |
|---|---|---|---|---|---|
| 2026-04-27 11:34 | 45.45808 | 9.28069 | 359 ft | 0 kts | 91° |
| 2026-04-27 11:51 | 45.45808 | 9.28081 | 365 ft | 3 kts | 91° |
| 2026-04-27 11:51 | 45.45768 | 9.28157 | 359 ft | 8 kts | 169° |
| 2026-04-27 11:52 | 45.45701 | 9.28160 | 364 ft | 11 kts | 180° |
| 2026-04-27 11:52 | 45.45614 | 9.28158 | 359 ft | 14 kts | 181° |
| 2026-04-27 11:52 | 45.45511 | 9.28157 | 359 ft | 16 kts | 180° |
| 2026-04-27 11:52 | 45.45458 | 9.28076 | 360 ft | 13 kts | 267° |
| 2026-04-27 11:53 | 45.45410 | 9.27978 | 359 ft | 15 kts | 181° |
| 2026-04-27 11:53 | 45.45310 | 9.27921 | 361 ft | 17 kts | 207° |
| 2026-04-27 11:53 | 45.45193 | 9.27869 | 363 ft | 19 kts | 183° |
| 2026-04-27 11:53 | 45.45057 | 9.27883 | 359 ft | 20 kts | 175° |
| 2026-04-27 11:54 | 45.44914 | 9.27914 | 362 ft | 21 kts | 165° |
| 2026-04-27 11:54 | 45.44773 | 9.27947 | 363 ft | 20 kts | 176° |
| 2026-04-27 11:54 | 45.44636 | 9.27962 | 362 ft | 20 kts | 175° |
| 2026-04-27 11:54 | 45.44502 | 9.27978 | 359 ft | 19 kts | 175° |
| 2026-04-27 11:55 | 45.44373 | 9.27995 | 360 ft | 18 kts | 174° |
| 2026-04-27 11:55 | 45.44248 | 9.28008 | 359 ft | 18 kts | 176° |
| 2026-04-27 11:55 | 45.44128 | 9.28018 | 360 ft | 17 kts | 176° |
| 2026-04-27 11:55 | 45.44012 | 9.28028 | 361 ft | 16 kts | 175° |
| 2026-04-27 11:56 | 45.43900 | 9.28041 | 359 ft | 16 kts | 175° |
| 2026-04-27 11:56 | 45.43793 | 9.28053 | 363 ft | 15 kts | 175° |
| 2026-04-27 11:56 | 45.43689 | 9.28063 | 359 ft | 15 kts | 176° |
| 2026-04-27 11:56 | 45.43591 | 9.28073 | 362 ft | 14 kts | 175° |
| 2026-04-27 11:57 | 45.43496 | 9.28080 | 362 ft | 13 kts | 185° |
| 2026-04-27 11:57 | 45.43446 | 9.27988 | 364 ft | 13 kts | 262° |
| 2026-04-27 11:57 | 45.43442 | 9.27863 | 365 ft | 13 kts | 285° |
| 2026-04-27 11:57 | 45.43520 | 9.27812 | 362 ft | 17 kts | 354° |
| 2026-04-27 11:58 | 45.43840 | 9.27777 | 361 ft | 82 kts | 356° |
| 2026-04-27 11:58 | 45.44637 | 9.27691 | 365 ft | 144 kts | 355° |
| 2026-04-27 11:58 | 45.45758 | 9.27565 | 583 ft | 170 kts | 354° |
| 2026-04-27 11:58 | 45.46912 | 9.27262 | 1360 ft | 172 kts | 348° |
| 2026-04-27 11:59 | 45.48095 | 9.26771 | 1982 ft | 178 kts | 340° |
| 2026-04-27 11:59 | 45.49243 | 9.26068 | 2649 ft | 185 kts | 333° |
| 2026-04-27 11:59 | 45.50459 | 9.25233 | 3081 ft | 206 kts | 339° |
| 2026-04-27 11:59 | 45.51899 | 9.24544 | 3399 ft | 226 kts | 342° |
| 2026-04-27 12:00 | 45.53409 | 9.23851 | 4053 ft | 229 kts | 341° |
| 2026-04-27 12:00 | 45.54926 | 9.23134 | 4843 ft | 230 kts | 341° |
| 2026-04-27 12:00 | 45.56440 | 9.22424 | 5687 ft | 228 kts | 341° |
| 2026-04-27 12:00 | 45.57955 | 9.21699 | 6466 ft | 231 kts | 341° |
| 2026-04-27 12:01 | 45.59475 | 9.20911 | 7105 ft | 239 kts | 335° |
| 2026-04-27 12:01 | 45.60963 | 9.19586 | 7349 ft | 265 kts | 319° |
| 2026-04-27 12:01 | 45.62145 | 9.17513 | 7951 ft | 274 kts | 301° |
| 2026-04-27 12:01 | 45.63086 | 9.15128 | 8743 ft | 277 kts | 300° |
| 2026-04-27 12:02 | 45.64017 | 9.12699 | 9566 ft | 280 kts | 299° |
| 2026-04-27 12:02 | 45.64954 | 9.10245 | 10364 ft | 283 kts | 300° |
| 2026-04-27 12:02 | 45.65936 | 9.07683 | 10634 ft | 306 kts | 300° |
| 2026-04-27 12:02 | 45.66999 | 9.04922 | 10837 ft | 329 kts | 299° |
| 2026-04-27 12:03 | 45.68141 | 9.01963 | 11075 ft | 349 kts | 299° |
| 2026-04-27 12:03 | 45.69324 | 8.98904 | 11710 ft | 352 kts | 299° |
| 2026-04-27 12:03 | 45.70506 | 8.95845 | 12546 ft | 352 kts | 299° |
| 2026-04-27 12:03 | 45.71703 | 8.92753 | 13126 ft | 359 kts | 299° |
| 2026-04-27 12:04 | 45.72917 | 8.89616 | 13853 ft | 361 kts | 299° |
| 2026-04-27 12:04 | 45.74134 | 8.86468 | 14503 ft | 364 kts | 299° |
| 2026-04-27 12:04 | 45.75366 | 8.83281 | 15143 ft | 366 kts | 299° |
| 2026-04-27 12:04 | 45.76604 | 8.80074 | 15750 ft | 370 kts | 299° |
| 2026-04-27 12:05 | 45.77855 | 8.76828 | 16355 ft | 374 kts | 299° |
| 2026-04-27 12:05 | 45.79118 | 8.73550 | 16946 ft | 378 kts | 299° |
| 2026-04-27 12:05 | 45.80391 | 8.70241 | 17530 ft | 381 kts | 299° |
| 2026-04-27 12:05 | 45.81675 | 8.66899 | 18139 ft | 384 kts | 299° |
| 2026-04-27 12:06 | 45.82966 | 8.63534 | 18700 ft | 386 kts | 299° |
| 2026-04-27 12:06 | 45.84265 | 8.60145 | 19217 ft | 389 kts | 299° |
| 2026-04-27 12:06 | 45.85570 | 8.56735 | 19764 ft | 391 kts | 299° |
| 2026-04-27 12:06 | 45.86878 | 8.53311 | 20330 ft | 393 kts | 299° |
| 2026-04-27 12:07 | 45.88180 | 8.49904 | 20832 ft | 396 kts | 298° |
| 2026-04-27 12:07 | 45.89506 | 8.46425 | 21325 ft | 399 kts | 298° |
| 2026-04-27 12:07 | 45.90841 | 8.42919 | 21816 ft | 402 kts | 299° |
| 2026-04-27 12:07 | 45.92190 | 8.39375 | 22296 ft | 405 kts | 299° |
| 2026-04-27 12:08 | 45.93573 | 8.35829 | 22812 ft | 408 kts | 301° |
| 2026-04-27 12:08 | 45.95050 | 8.32336 | 23326 ft | 410 kts | 302° |
| 2026-04-27 12:08 | 45.96573 | 8.28855 | 23805 ft | 413 kts | 302° |
| 2026-04-27 12:08 | 45.98112 | 8.25357 | 24213 ft | 415 kts | 302° |
| 2026-04-27 12:09 | 45.99647 | 8.21839 | 24650 ft | 417 kts | 302° |
| 2026-04-27 12:09 | 46.01182 | 8.18290 | 25046 ft | 419 kts | 302° |
| 2026-04-27 12:09 | 46.02716 | 8.14720 | 25415 ft | 420 kts | 302° |
| 2026-04-27 12:09 | 46.04254 | 8.11131 | 25803 ft | 423 kts | 302° |
| 2026-04-27 12:10 | 46.05816 | 8.07523 | 26184 ft | 425 kts | 304° |
| 2026-04-27 12:10 | 46.07745 | 8.04289 | 26502 ft | 428 kts | 318° |
| 2026-04-27 12:10 | 46.10116 | 8.01708 | 26957 ft | 428 kts | 328° |
| 2026-04-27 12:10 | 46.12794 | 7.99816 | 27344 ft | 431 kts | 338° |
| 2026-04-27 12:11 | 46.15616 | 7.98324 | 27705 ft | 434 kts | 339° |
| 2026-04-27 12:11 | 46.18471 | 7.96869 | 28049 ft | 436 kts | 339° |
| 2026-04-27 12:11 | 46.21341 | 7.95413 | 28392 ft | 438 kts | 339° |
| 2026-04-27 12:11 | 46.24221 | 7.93942 | 28738 ft | 440 kts | 339° |
| 2026-04-27 12:12 | 46.26175 | 7.92933 | 28979 ft | 442 kts | 339° |
| 2026-04-27 12:12 | 46.29027 | 7.91447 | 29316 ft | 444 kts | 339° |
| 2026-04-27 12:12 | 46.31937 | 7.89919 | 29664 ft | 445 kts | 338° |
| 2026-04-27 12:12 | 46.34842 | 7.88384 | 30161 ft | 443 kts | 338° |
| 2026-04-27 12:13 | 46.37715 | 7.86861 | 30679 ft | 440 kts | 338° |
| 2026-04-27 12:13 | 46.40593 | 7.85332 | 31064 ft | 438 kts | 338° |
| 2026-04-27 12:13 | 46.43458 | 7.83807 | 31363 ft | 440 kts | 338° |
| 2026-04-27 12:13 | 46.46338 | 7.82272 | 31629 ft | 441 kts | 338° |
| 2026-04-27 12:14 | 46.49207 | 7.80742 | 32002 ft | 440 kts | 338° |
| 2026-04-27 12:14 | 46.52082 | 7.79207 | 32397 ft | 438 kts | 338° |
| 2026-04-27 12:14 | 46.54940 | 7.77680 | 32745 ft | 438 kts | 338° |
| 2026-04-27 12:14 | 46.57800 | 7.76150 | 33056 ft | 438 kts | 338° |
| 2026-04-27 12:15 | 46.60647 | 7.74626 | 33360 ft | 438 kts | 338° |
| 2026-04-27 12:15 | 46.63514 | 7.73089 | 33702 ft | 437 kts | 338° |
| 2026-04-27 12:15 | 46.66361 | 7.71561 | 34061 ft | 436 kts | 338° |
| 2026-04-27 12:15 | 46.69210 | 7.70031 | 34334 ft | 436 kts | 338° |
| 2026-04-27 12:16 | 46.72043 | 7.68507 | 34599 ft | 435 kts | 338° |
| 2026-04-27 12:16 | 46.74884 | 7.66977 | 34906 ft | 433 kts | 338° |
| 2026-04-27 12:16 | 46.77707 | 7.65456 | 35209 ft | 432 kts | 338° |
| 2026-04-27 12:16 | 46.80522 | 7.63937 | 35457 ft | 431 kts | 338° |
| 2026-04-27 12:17 | 46.83329 | 7.62420 | 35686 ft | 431 kts | 338° |
| 2026-04-27 12:17 | 46.86145 | 7.60897 | 35951 ft | 430 kts | 337° |
| 2026-04-27 12:17 | 46.88947 | 7.59379 | 36150 ft | 430 kts | 337° |
| 2026-04-27 12:18 | 46.94590 | 7.56318 | 36143 ft | 431 kts | 337° |
| 2026-04-27 12:18 | 47.00187 | 7.53276 | 36134 ft | 427 kts | 337° |
| 2026-04-27 12:19 | 47.05697 | 7.50275 | 36140 ft | 424 kts | 337° |
| 2026-04-27 12:19 | 47.11214 | 7.47262 | 36162 ft | 422 kts | 337° |
| 2026-04-27 12:20 | 47.16725 | 7.44245 | 36167 ft | 423 kts | 336° |
| 2026-04-27 12:20 | 47.22250 | 7.41214 | 36153 ft | 425 kts | 336° |
| 2026-04-27 12:21 | 47.27801 | 7.38161 | 36159 ft | 428 kts | 336° |
| 2026-04-27 12:21 | 47.33394 | 7.35080 | 36163 ft | 430 kts | 336° |
| 2026-04-27 12:22 | 47.39016 | 7.31976 | 36166 ft | 433 kts | 336° |
| 2026-04-27 12:22 | 47.44663 | 7.28850 | 36162 ft | 434 kts | 336° |
| 2026-04-27 12:23 | 47.50322 | 7.25712 | 36162 ft | 434 kts | 336° |
| 2026-04-27 12:23 | 47.55976 | 7.22569 | 36156 ft | 434 kts | 336° |
| 2026-04-27 12:24 | 47.61616 | 7.19427 | 36165 ft | 432 kts | 335° |
| 2026-04-27 12:24 | 47.67230 | 7.16291 | 36162 ft | 430 kts | 335° |
| 2026-04-27 12:25 | 47.72815 | 7.13165 | 36165 ft | 428 kts | 335° |
| 2026-04-27 12:25 | 47.78379 | 7.10043 | 36166 ft | 427 kts | 335° |
| 2026-04-27 12:26 | 47.83925 | 7.06923 | 36163 ft | 426 kts | 335° |
| 2026-04-27 12:26 | 47.89467 | 7.03798 | 36178 ft | 426 kts | 335° |
| 2026-04-27 12:27 | 47.95012 | 7.00664 | 36171 ft | 427 kts | 335° |
| 2026-04-27 12:27 | 48.00537 | 6.97534 | 36166 ft | 429 kts | 335° |
| 2026-04-27 12:28 | 48.06123 | 6.94363 | 36161 ft | 429 kts | 335° |
| 2026-04-27 12:28 | 48.11701 | 6.91191 | 36171 ft | 430 kts | 335° |
| 2026-04-27 12:29 | 48.17293 | 6.88003 | 36161 ft | 430 kts | 335° |
| 2026-04-27 12:29 | 48.22887 | 6.84805 | 36167 ft | 430 kts | 335° |
| 2026-04-27 12:30 | 48.28476 | 6.81603 | 36174 ft | 430 kts | 334° |
| 2026-04-27 12:30 | 48.34061 | 6.78395 | 36171 ft | 430 kts | 334° |
| 2026-04-27 12:31 | 48.39650 | 6.75178 | 36170 ft | 430 kts | 334° |
| 2026-04-27 12:31 | 48.45229 | 6.71959 | 36174 ft | 429 kts | 334° |
| 2026-04-27 12:32 | 48.50795 | 6.68740 | 36180 ft | 429 kts | 334° |
| 2026-04-27 12:32 | 48.56357 | 6.65515 | 36177 ft | 428 kts | 334° |
| 2026-04-27 12:33 | 48.61918 | 6.62284 | 36179 ft | 428 kts | 334° |
| 2026-04-27 12:33 | 48.67476 | 6.59047 | 36184 ft | 427 kts | 334° |
| 2026-04-27 12:34 | 48.73018 | 6.55811 | 36191 ft | 427 kts | 334° |
| 2026-04-27 12:34 | 48.78524 | 6.52588 | 36183 ft | 427 kts | 334° |
| 2026-04-27 12:35 | 48.84072 | 6.49333 | 36198 ft | 427 kts | 334° |
| 2026-04-27 12:35 | 48.89616 | 6.46073 | 36207 ft | 428 kts | 334° |
| 2026-04-27 12:36 | 48.95165 | 6.42802 | 36214 ft | 428 kts | 334° |
| 2026-04-27 12:36 | 49.00722 | 6.39519 | 36184 ft | 428 kts | 334° |
| 2026-04-27 12:37 | 49.06273 | 6.36231 | 36186 ft | 428 kts | 334° |
| 2026-04-27 12:37 | 49.11832 | 6.32931 | 36185 ft | 428 kts | 334° |
| 2026-04-27 12:38 | 49.17390 | 6.29623 | 36193 ft | 429 kts | 333° |
| 2026-04-27 12:38 | 49.22952 | 6.26304 | 36195 ft | 429 kts | 333° |
| 2026-04-27 12:39 | 49.28521 | 6.22974 | 36198 ft | 429 kts | 333° |
| 2026-04-27 12:39 | 49.34087 | 6.19638 | 36200 ft | 429 kts | 333° |
| 2026-04-27 12:40 | 49.39645 | 6.16297 | 36211 ft | 429 kts | 333° |
| 2026-04-27 12:40 | 49.45208 | 6.12946 | 36205 ft | 430 kts | 333° |
| 2026-04-27 12:41 | 49.50389 | 6.08658 | 36215 ft | 420 kts | 320° |
| 2026-04-27 12:41 | 49.55132 | 6.03389 | 36209 ft | 420 kts | 320° |
| 2026-04-27 12:42 | 49.59877 | 5.98108 | 36229 ft | 421 kts | 320° |
| 2026-04-27 12:42 | 49.64646 | 5.92840 | 36214 ft | 422 kts | 320° |
| 2026-04-27 12:43 | 49.69394 | 5.87608 | 36204 ft | 422 kts | 320° |
| 2026-04-27 12:43 | 49.74179 | 5.82327 | 36205 ft | 423 kts | 320° |
| 2026-04-27 12:44 | 49.78962 | 5.77036 | 36202 ft | 423 kts | 320° |
| 2026-04-27 12:44 | 49.83744 | 5.71731 | 36225 ft | 423 kts | 320° |
| 2026-04-27 12:45 | 49.88525 | 5.66414 | 36208 ft | 423 kts | 320° |
| 2026-04-27 12:45 | 49.93308 | 5.61081 | 36209 ft | 424 kts | 320° |
| 2026-04-27 12:46 | 49.98092 | 5.55733 | 36201 ft | 424 kts | 320° |
| 2026-04-27 12:46 | 50.02876 | 5.50372 | 36214 ft | 424 kts | 320° |
| 2026-04-27 12:47 | 50.07659 | 5.44999 | 36223 ft | 424 kts | 320° |
| 2026-04-27 12:47 | 50.12442 | 5.39613 | 36217 ft | 424 kts | 320° |
| 2026-04-27 12:48 | 50.17248 | 5.34258 | 36214 ft | 425 kts | 321° |
| 2026-04-27 12:48 | 50.22112 | 5.29005 | 36236 ft | 425 kts | 321° |
| 2026-04-27 12:49 | 50.26984 | 5.23744 | 36225 ft | 425 kts | 321° |
| 2026-04-27 12:49 | 50.31841 | 5.18466 | 36248 ft | 425 kts | 321° |
| 2026-04-27 12:50 | 50.36697 | 5.13162 | 36243 ft | 426 kts | 321° |
| 2026-04-27 12:50 | 50.41551 | 5.07846 | 36247 ft | 426 kts | 321° |
| 2026-04-27 12:51 | 50.46406 | 5.02514 | 36245 ft | 426 kts | 321° |
| 2026-04-27 12:51 | 50.51229 | 4.97205 | 36251 ft | 426 kts | 321° |
| 2026-04-27 12:52 | 50.56084 | 4.91847 | 36264 ft | 427 kts | 320° |
| 2026-04-27 12:52 | 50.60940 | 4.86474 | 36256 ft | 427 kts | 320° |
| 2026-04-27 12:53 | 50.68222 | 4.78392 | 36251 ft | 427 kts | 320° |
| 2026-04-27 12:53 | 50.73073 | 4.72989 | 36250 ft | 427 kts | 320° |
| 2026-04-27 12:54 | 50.77917 | 4.67581 | 36265 ft | 426 kts | 320° |
| 2026-04-27 12:54 | 50.82764 | 4.62154 | 36268 ft | 427 kts | 320° |
| 2026-04-27 12:55 | 50.85187 | 4.59436 | 36105 ft | 430 kts | 320° |
| 2026-04-27 12:55 | 50.87649 | 4.56640 | 35443 ft | 436 kts | 317° |
| 2026-04-27 12:55 | 50.89881 | 4.53469 | 34707 ft | 430 kts | 309° |
| 2026-04-27 12:55 | 50.91787 | 4.49868 | 34007 ft | 422 kts | 300° |
| 2026-04-27 12:56 | 50.93325 | 4.45976 | 33459 ft | 413 kts | 297° |
| 2026-04-27 12:56 | 50.94798 | 4.42102 | 32899 ft | 408 kts | 297° |
| 2026-04-27 12:56 | 50.96258 | 4.38269 | 32345 ft | 402 kts | 297° |
| 2026-04-27 12:56 | 50.97701 | 4.34501 | 31831 ft | 397 kts | 297° |
| 2026-04-27 12:57 | 50.99131 | 4.30780 | 31286 ft | 393 kts | 297° |
| 2026-04-27 12:57 | 51.00547 | 4.27102 | 30772 ft | 388 kts | 297° |
| 2026-04-27 12:57 | 51.01948 | 4.23462 | 30251 ft | 384 kts | 297° |
| 2026-04-27 12:57 | 51.03330 | 4.19868 | 29675 ft | 380 kts | 297° |
| 2026-04-27 12:58 | 51.04697 | 4.16313 | 29164 ft | 374 kts | 297° |
| 2026-04-27 12:58 | 51.06043 | 4.12806 | 28654 ft | 369 kts | 297° |
| 2026-04-27 12:58 | 51.07454 | 4.09419 | 28017 ft | 367 kts | 307° |
| 2026-04-27 12:58 | 51.09509 | 4.06923 | 26969 ft | 382 kts | 328° |
| 2026-04-27 12:59 | 51.11149 | 4.05863 | 26365 ft | 387 kts | 337° |
| 2026-04-27 12:59 | 51.13816 | 4.05057 | 25546 ft | 395 kts | 352° |
| 2026-04-27 12:59 | 51.16566 | 4.05169 | 24839 ft | 394 kts | 358° |
| 2026-04-27 12:59 | 51.19286 | 4.05468 | 24142 ft | 390 kts | 359° |
| 2026-04-27 13:00 | 51.21984 | 4.05811 | 23364 ft | 387 kts | 359° |
| 2026-04-27 13:00 | 51.24641 | 4.06149 | 22767 ft | 378 kts | 359° |
| 2026-04-27 13:00 | 51.27251 | 4.06464 | 22283 ft | 375 kts | 359° |
| 2026-04-27 13:00 | 51.29845 | 4.06760 | 21787 ft | 373 kts | 359° |
| 2026-04-27 13:01 | 51.32428 | 4.07043 | 21308 ft | 370 kts | 358° |
| 2026-04-27 13:01 | 51.34985 | 4.07316 | 20847 ft | 368 kts | 359° |
| 2026-04-27 13:01 | 51.37532 | 4.07584 | 20391 ft | 365 kts | 359° |
| 2026-04-27 13:01 | 51.40059 | 4.07849 | 19988 ft | 362 kts | 359° |
| 2026-04-27 13:02 | 51.42548 | 4.08112 | 19550 ft | 356 kts | 359° |
| 2026-04-27 13:02 | 51.45020 | 4.08371 | 18788 ft | 356 kts | 359° |
| 2026-04-27 13:02 | 51.47491 | 4.08629 | 18018 ft | 355 kts | 359° |
| 2026-04-27 13:02 | 51.49939 | 4.08885 | 17315 ft | 351 kts | 359° |
| 2026-04-27 13:03 | 51.52365 | 4.09140 | 16667 ft | 347 kts | 0° |
| 2026-04-27 13:03 | 51.54763 | 4.09393 | 16016 ft | 343 kts | 0° |
| 2026-04-27 13:03 | 51.57131 | 4.09642 | 15379 ft | 339 kts | 0° |
| 2026-04-27 13:03 | 51.59475 | 4.09889 | 14739 ft | 336 kts | 0° |
| 2026-04-27 13:04 | 51.61798 | 4.10133 | 14130 ft | 333 kts | 0° |
| 2026-04-27 13:04 | 51.64100 | 4.10376 | 13463 ft | 329 kts | 0° |
| 2026-04-27 13:04 | 51.66372 | 4.10616 | 12934 ft | 326 kts | 1° |
| 2026-04-27 13:04 | 51.68602 | 4.10850 | 12480 ft | 326 kts | 1° |
| 2026-04-27 13:05 | 51.70893 | 4.11092 | 12027 ft | 324 kts | 1° |
| 2026-04-27 13:05 | 51.73107 | 4.11326 | 11599 ft | 323 kts | 1° |
| 2026-04-27 13:05 | 51.75348 | 4.11563 | 11172 ft | 322 kts | 2° |
| 2026-04-27 13:05 | 51.77586 | 4.11808 | 10755 ft | 321 kts | 2° |
| 2026-04-27 13:06 | 51.79770 | 4.12039 | 10587 ft | 307 kts | 2° |
| 2026-04-27 13:06 | 51.81838 | 4.12257 | 10437 ft | 290 kts | 2° |
| 2026-04-27 13:06 | 51.83833 | 4.12467 | 10325 ft | 286 kts | 2° |
| 2026-04-27 13:06 | 51.85845 | 4.12679 | 10073 ft | 294 kts | 2° |
| 2026-04-27 13:07 | 51.87895 | 4.12898 | 9698 ft | 295 kts | 2° |
| 2026-04-27 13:07 | 51.89928 | 4.13122 | 9323 ft | 290 kts | 4° |
| 2026-04-27 13:07 | 51.91822 | 4.14046 | 8968 ft | 284 kts | 28° |
| 2026-04-27 13:07 | 51.93448 | 4.15846 | 8661 ft | 284 kts | 36° |
| 2026-04-27 13:08 | 51.94983 | 4.17863 | 8320 ft | 284 kts | 39° |
| 2026-04-27 13:08 | 51.96490 | 4.19912 | 7998 ft | 282 kts | 39° |
| 2026-04-27 13:08 | 51.97992 | 4.21959 | 7649 ft | 282 kts | 38° |
| 2026-04-27 13:08 | 51.99488 | 4.23982 | 7315 ft | 277 kts | 38° |
| 2026-04-27 13:09 | 52.00958 | 4.25956 | 6994 ft | 271 kts | 38° |
| 2026-04-27 13:09 | 52.02390 | 4.27876 | 6678 ft | 265 kts | 38° |
| 2026-04-27 13:09 | 52.03802 | 4.29762 | 6380 ft | 261 kts | 38° |
| 2026-04-27 13:09 | 52.05201 | 4.31629 | 6047 ft | 260 kts | 39° |
| 2026-04-27 13:10 | 52.06597 | 4.33492 | 5742 ft | 260 kts | 38° |
| 2026-04-27 13:10 | 52.08019 | 4.35389 | 5219 ft | 266 kts | 38° |
| 2026-04-27 13:10 | 52.09433 | 4.37272 | 4844 ft | 261 kts | 39° |
| 2026-04-27 13:10 | 52.10814 | 4.39109 | 4505 ft | 253 kts | 39° |
| 2026-04-27 13:11 | 52.12144 | 4.40889 | 4232 ft | 243 kts | 39° |
| 2026-04-27 13:11 | 52.13411 | 4.42586 | 4096 ft | 228 kts | 39° |
| 2026-04-27 13:11 | 52.14608 | 4.44186 | 4006 ft | 224 kts | 38° |
| 2026-04-27 13:11 | 52.15806 | 4.45788 | 3883 ft | 222 kts | 39° |
| 2026-04-27 13:12 | 52.16986 | 4.47374 | 3765 ft | 212 kts | 40° |
| 2026-04-27 13:12 | 52.18081 | 4.48845 | 3541 ft | 199 kts | 39° |
| 2026-04-27 13:12 | 52.19124 | 4.50235 | 3323 ft | 189 kts | 39° |
| 2026-04-27 13:12 | 52.20107 | 4.51545 | 3058 ft | 181 kts | 39° |
| 2026-04-27 13:13 | 52.20932 | 4.53071 | 2831 ft | 178 kts | 58° |
| 2026-04-27 13:13 | 52.21579 | 4.54776 | 2587 ft | 177 kts | 57° |
| 2026-04-27 13:13 | 52.22254 | 4.56461 | 2407 ft | 178 kts | 56° |
| 2026-04-27 13:13 | 52.22947 | 4.58136 | 2194 ft | 181 kts | 54° |
| 2026-04-27 13:14 | 52.23625 | 4.59856 | 1979 ft | 180 kts | 58° |
| 2026-04-27 13:14 | 52.24257 | 4.61554 | 1742 ft | 171 kts | 57° |
| 2026-04-27 13:14 | 52.24863 | 4.63144 | 1534 ft | 156 kts | 57° |
| 2026-04-27 13:14 | 52.25432 | 4.64635 | 1294 ft | 157 kts | 56° |
| 2026-04-27 13:15 | 52.25995 | 4.66104 | 1090 ft | 151 kts | 57° |
| 2026-04-27 13:15 | 52.26541 | 4.67537 | 894 ft | 145 kts | 56° |
| 2026-04-27 13:15 | 52.27074 | 4.68945 | 708 ft | 145 kts | 56° |
| 2026-04-27 13:15 | 52.27619 | 4.70341 | 518 ft | 146 kts | 54° |
| 2026-04-27 13:16 | 52.28171 | 4.71742 | 308 ft | 149 kts | 57° |
| 2026-04-27 13:16 | 52.28709 | 4.73190 | 113 ft | 148 kts | 58° |
| 2026-04-27 13:16 | 52.29245 | 4.74583 | 0 ft | 137 kts | 58° |
| 2026-04-27 13:16 | 52.29641 | 4.75620 | -2 ft | 76 kts | 58° |
| 2026-04-27 13:17 | 52.29828 | 4.76108 | -5 ft | 42 kts | 57° |
| 2026-04-27 13:17 | 52.29982 | 4.76479 | -3 ft | 37 kts | 42° |
| 2026-04-27 13:17 | 52.30155 | 4.76648 | -2 ft | 7 kts | 27° |
| 2026-04-27 13:17 | 52.30165 | 4.76657 | -2 ft | 1 kts | 27° |
| 2026-04-27 13:18 | 52.30184 | 4.76672 | -2 ft | 6 kts | 27° |
| 2026-04-27 13:18 | 52.30240 | 4.76720 | -2 ft | 8 kts | 27° |
| 2026-04-27 13:18 | 52.30259 | 4.76736 | -2 ft | 6 kts | 25° |
| 2026-04-27 13:18 | 52.30263 | 4.76739 | -2 ft | 0 kts | 25° |
| 2026-04-27 13:19 | 52.30269 | 4.76744 | -2 ft | 3 kts | 27° |
| 2026-04-27 13:19 | 52.30286 | 4.76768 | -2 ft | 5 kts | 46° |
| 2026-04-27 13:19 | 52.30319 | 4.76839 | -2 ft | 10 kts | 57° |
| 2026-04-27 13:19 | 52.30367 | 4.76961 | -2 ft | 15 kts | 57° |
| 2026-04-27 13:20 | 52.30406 | 4.77065 | -2 ft | 9 kts | 60° |
| 2026-04-27 13:20 | 52.30456 | 4.77153 | -2 ft | 13 kts | 15° |
| 2026-04-27 13:20 | 52.30540 | 4.77094 | -2 ft | 13 kts | 329° |
| 2026-04-27 13:20 | 52.30607 | 4.77027 | -2 ft | 12 kts | 328° |
| 2026-04-27 13:21 | 52.30657 | 4.76898 | -2 ft | 17 kts | 286° |
| 2026-04-27 13:21 | 52.30718 | 4.76848 | -2 ft | 8 kts | 41° |
| 2026-04-27 13:21 | 52.30737 | 4.76881 | -2 ft | 3 kts | 50° |
| 2026-04-27 13:21 | 52.30742 | 4.76890 | -2 ft | 0 kts | 49° |
| 2026-04-27 13:22 | 52.30745 | 4.76897 | -2 ft | 1 kts | 49° |
| 2026-04-27 13:22 | 52.30747 | 4.76901 | -2 ft | 0 kts | 49° |